sensor_id;sensor_type;location;lat;lon;timestamp;pressure;altitude;pressure_sealevel;temperature;humidity
74615;BME280;63121;51.458;-0.110;2023-01-10T00:01:49;101300.50;;;8.28;62.17
74615;BME280;63121;51.458;-0.110;2023-01-10T00:04:14;101300.50;;;8.28;62.12
74615;BME280;63121;51.458;-0.110;2023-01-10T00:06:39;101304.00;;;8.33;61.93
74615;BME280;63121;51.458;-0.110;2023-01-10T00:09:04;101303.13;;;8.34;61.91
74615;BME280;63121;51.458;-0.110;2023-01-10T00:11:30;101308.19;;;8.20;62.33
74615;BME280;63121;51.458;-0.110;2023-01-10T00:14:13;101313.38;;;8.29;62.15
74615;BME280;63121;51.458;-0.110;2023-01-10T00:16:39;101310.66;;;8.11;62.57
74615;BME280;63121;51.458;-0.110;2023-01-10T00:19:07;101303.03;;;8.22;62.20
74615;BME280;63121;51.458;-0.110;2023-01-10T00:21:35;101309.03;;;8.19;62.39
74615;BME280;63121;51.458;-0.110;2023-01-10T00:24:00;101306.53;;;8.30;62.15
74615;BME280;63121;51.458;-0.110;2023-01-10T00:26:37;101308.03;;;8.05;63.24
74615;BME280;63121;51.458;-0.110;2023-01-10T00:29:03;101296.78;;;7.92;62.71
74615;BME280;63121;51.458;-0.110;2023-01-10T00:31:31;101310.47;;;7.92;63.22
74615;BME280;63121;51.458;-0.110;2023-01-10T00:33:57;101321.75;;;8.04;63.06
74615;BME280;63121;51.458;-0.110;2023-01-10T00:36:22;101321.59;;;7.88;63.47
74615;BME280;63121;51.458;-0.110;2023-01-10T00:38:47;101319.88;;;7.87;63.29
74615;BME280;63121;51.458;-0.110;2023-01-10T00:41:14;101323.31;;;7.89;63.53
74615;BME280;63121;51.458;-0.110;2023-01-10T00:43:58;101329.25;;;7.84;63.19
74615;BME280;63121;51.458;-0.110;2023-01-10T00:46:25;101325.28;;;8.17;62.62
74615;BME280;63121;51.458;-0.110;2023-01-10T00:48:50;101331.78;;;7.76;63.17
74615;BME280;63121;51.458;-0.110;2023-01-10T00:51:17;101331.84;;;7.82;63.55
74615;BME280;63121;51.458;-0.110;2023-01-10T00:53:42;101320.72;;;7.88;62.59
74615;BME280;63121;51.458;-0.110;2023-01-10T00:56:08;101331.06;;;7.94;62.60
74615;BME280;63121;51.458;-0.110;2023-01-10T00:58:33;101329.91;;;7.63;64.06
74615;BME280;63121;51.458;-0.110;2023-01-10T01:00:58;101337.84;;;7.86;63.69
74615;BME280;63121;51.458;-0.110;2023-01-10T01:03:24;101333.13;;;8.32;62.01
74615;BME280;63121;51.458;-0.110;2023-01-10T01:05:49;101337.78;;;7.80;63.15
74615;BME280;63121;51.458;-0.110;2023-01-10T01:08:16;101338.72;;;7.88;63.53
74615;BME280;63121;51.458;-0.110;2023-01-10T01:10:42;101339.00;;;8.17;62.66
74615;BME280;63121;51.458;-0.110;2023-01-10T01:13:17;101340.53;;;7.98;63.03
74615;BME280;63121;51.458;-0.110;2023-01-10T01:15:43;101343.13;;;8.00;63.28
74615;BME280;63121;51.458;-0.110;2023-01-10T01:18:11;101349.81;;;7.84;63.91
74615;BME280;63121;51.458;-0.110;2023-01-10T01:20:38;101352.34;;;7.79;63.89
74615;BME280;63121;51.458;-0.110;2023-01-10T01:23:04;101346.53;;;7.97;63.78
74615;BME280;63121;51.458;-0.110;2023-01-10T01:25:29;101361.59;;;8.50;61.89
74615;BME280;63121;51.458;-0.110;2023-01-10T01:27:54;101357.31;;;8.48;62.01
74615;BME280;63121;51.458;-0.110;2023-01-10T01:30:20;101357.41;;;8.60;61.33
74615;BME280;63121;51.458;-0.110;2023-01-10T01:32:45;101356.81;;;7.99;62.85
74615;BME280;63121;51.458;-0.110;2023-01-10T01:35:13;101356.13;;;8.12;62.99
74615;BME280;63121;51.458;-0.110;2023-01-10T01:37:39;101347.50;;;8.11;63.06
74615;BME280;63121;51.458;-0.110;2023-01-10T01:40:04;101345.00;;;8.14;62.73
74615;BME280;63121;51.458;-0.110;2023-01-10T01:42:33;101354.72;;;8.43;61.81
74615;BME280;63121;51.458;-0.110;2023-01-10T01:47:36;101365.72;;;8.33;62.39
74615;BME280;63121;51.458;-0.110;2023-01-10T01:50:08;101363.09;;;8.25;62.42
74615;BME280;63121;51.458;-0.110;2023-01-10T01:52:39;101366.75;;;8.53;61.71
74615;BME280;63121;51.458;-0.110;2023-01-10T01:55:05;101368.34;;;8.38;61.91
74615;BME280;63121;51.458;-0.110;2023-01-10T01:57:31;101366.59;;;8.35;62.67
74615;BME280;63121;51.458;-0.110;2023-01-10T01:59:59;101358.22;;;8.56;61.59
74615;BME280;63121;51.458;-0.110;2023-01-10T02:02:30;101370.28;;;8.60;61.96
74615;BME280;63121;51.458;-0.110;2023-01-10T02:05:01;101358.19;;;8.53;62.07
74615;BME280;63121;51.458;-0.110;2023-01-10T02:07:30;101362.22;;;8.23;62.42
74615;BME280;63121;51.458;-0.110;2023-01-10T02:10:10;101362.59;;;8.65;61.27
74615;BME280;63121;51.458;-0.110;2023-01-10T02:12:38;101366.84;;;8.64;61.58
74615;BME280;63121;51.458;-0.110;2023-01-10T02:15:04;101367.75;;;8.69;60.93
74615;BME280;63121;51.458;-0.110;2023-01-10T02:17:30;101369.66;;;9.00;60.64
74615;BME280;63121;51.458;-0.110;2023-01-10T02:31:14;101394.75;;;8.21;62.78
74615;BME280;63121;51.458;-0.110;2023-01-10T02:33:48;101383.88;;;8.47;61.94
74615;BME280;63121;51.458;-0.110;2023-01-10T02:42:20;101390.72;;;8.45;62.25
74615;BME280;63121;51.458;-0.110;2023-01-10T02:47:22;101400.09;;;8.40;62.69
74615;BME280;63121;51.458;-0.110;2023-01-10T02:49:49;101409.28;;;8.14;63.15
74615;BME280;63121;51.458;-0.110;2023-01-10T02:52:26;101409.13;;;8.94;61.32
74615;BME280;63121;51.458;-0.110;2023-01-10T02:54:58;101402.31;;;9.08;61.04
74615;BME280;63121;51.458;-0.110;2023-01-10T03:06:00;101403.19;;;9.10;60.74
74615;BME280;63121;51.458;-0.110;2023-01-10T03:08:52;101408.13;;;8.73;61.16
74615;BME280;63121;51.458;-0.110;2023-01-10T03:11:24;101406.69;;;9.15;60.28
74615;BME280;63121;51.458;-0.110;2023-01-10T03:14:07;101394.59;;;9.05;60.74
74615;BME280;63121;51.458;-0.110;2023-01-10T03:16:36;101391.97;;;8.96;61.09
74615;BME280;63121;51.458;-0.110;2023-01-10T03:19:07;101377.97;;;8.59;61.95
74615;BME280;63121;51.458;-0.110;2023-01-10T03:21:35;101376.56;;;9.08;61.06
74615;BME280;63121;51.458;-0.110;2023-01-10T03:24:07;101373.63;;;8.50;62.10
74615;BME280;63121;51.458;-0.110;2023-01-10T03:26:46;101380.47;;;8.48;62.79
74615;BME280;63121;51.458;-0.110;2023-01-10T03:29:13;101377.19;;;8.67;62.43
74615;BME280;63121;51.458;-0.110;2023-01-10T03:31:54;101381.63;;;8.88;61.10
74615;BME280;63121;51.458;-0.110;2023-01-10T03:34:21;101385.94;;;8.92;61.06
74615;BME280;63121;51.458;-0.110;2023-01-10T03:36:53;101382.50;;;8.95;61.28
74615;BME280;63121;51.458;-0.110;2023-01-10T03:39:38;101375.53;;;8.75;61.39
74615;BME280;63121;51.458;-0.110;2023-01-10T03:42:33;101369.59;;;8.89;61.33
74615;BME280;63121;51.458;-0.110;2023-01-10T03:45:27;101360.28;;;9.09;60.85
74615;BME280;63121;51.458;-0.110;2023-01-10T03:47:58;101348.97;;;8.87;60.85
74615;BME280;63121;51.458;-0.110;2023-01-10T03:50:27;101346.50;;;8.98;60.70
74615;BME280;63121;51.458;-0.110;2023-01-10T03:52:55;101340.53;;;9.14;60.04
74615;BME280;63121;51.458;-0.110;2023-01-10T03:55:23;101344.91;;;9.28;60.47
74615;BME280;63121;51.458;-0.110;2023-01-10T03:57:50;101331.13;;;9.16;60.41
74615;BME280;63121;51.458;-0.110;2023-01-10T04:00:16;101336.16;;;8.92;61.47
74615;BME280;63121;51.458;-0.110;2023-01-10T04:02:42;101336.25;;;9.13;60.39
74615;BME280;63121;51.458;-0.110;2023-01-10T04:05:08;101336.31;;;9.24;61.02
74615;BME280;63121;51.458;-0.110;2023-01-10T04:07:34;101331.91;;;9.03;60.46
74615;BME280;63121;51.458;-0.110;2023-01-10T04:09:59;101341.41;;;9.09;60.64
74615;BME280;63121;51.458;-0.110;2023-01-10T04:12:24;101339.75;;;9.22;60.58
74615;BME280;63121;51.458;-0.110;2023-01-10T04:14:50;101340.59;;;9.24;60.17
74615;BME280;63121;51.458;-0.110;2023-01-10T04:17:16;101342.38;;;9.34;59.81
74615;BME280;63121;51.458;-0.110;2023-01-10T04:19:42;101335.41;;;9.13;60.26
74615;BME280;63121;51.458;-0.110;2023-01-10T04:22:08;101335.41;;;9.14;60.43
74615;BME280;63121;51.458;-0.110;2023-01-10T04:24:34;101332.88;;;9.31;60.89
74615;BME280;63121;51.458;-0.110;2023-01-10T04:27:00;101330.44;;;9.57;59.17
74615;BME280;63121;51.458;-0.110;2023-01-10T04:29:26;101326.06;;;9.46;59.44
74615;BME280;63121;51.458;-0.110;2023-01-10T04:31:51;101331.19;;;9.26;60.36
74615;BME280;63121;51.458;-0.110;2023-01-10T04:34:17;101325.16;;;9.27;60.13
74615;BME280;63121;51.458;-0.110;2023-01-10T04:36:44;101331.16;;;9.27;60.33
74615;BME280;63121;51.458;-0.110;2023-01-10T04:39:10;101333.78;;;9.36;59.96
74615;BME280;63121;51.458;-0.110;2023-01-10T04:41:38;101323.44;;;9.33;60.42
74615;BME280;63121;51.458;-0.110;2023-01-10T04:44:03;101329.56;;;9.51;59.96
74615;BME280;63121;51.458;-0.110;2023-01-10T04:46:29;101330.31;;;9.27;60.66
74615;BME280;63121;51.458;-0.110;2023-01-10T04:48:55;101329.47;;;9.40;60.09
74615;BME280;63121;51.458;-0.110;2023-01-10T04:51:22;101311.41;;;9.26;60.78
74615;BME280;63121;51.458;-0.110;2023-01-10T04:53:47;101300.28;;;9.35;60.43
74615;BME280;63121;51.458;-0.110;2023-01-10T04:56:17;101301.97;;;9.31;60.30
74615;BME280;63121;51.458;-0.110;2023-01-10T04:58:43;101301.06;;;9.14;60.90
74615;BME280;63121;51.458;-0.110;2023-01-10T05:01:19;101287.44;;;9.50;60.10
74615;BME280;63121;51.458;-0.110;2023-01-10T05:03:57;101277.94;;;9.31;61.20
74615;BME280;63121;51.458;-0.110;2023-01-10T05:06:23;101274.50;;;9.26;60.52
74615;BME280;63121;51.458;-0.110;2023-01-10T05:08:49;101276.16;;;9.14;61.38
74615;BME280;63121;51.458;-0.110;2023-01-10T05:11:14;101276.16;;;9.14;61.02
74615;BME280;63121;51.458;-0.110;2023-01-10T05:13:40;101281.31;;;9.11;61.31
74615;BME280;63121;51.458;-0.110;2023-01-10T05:16:06;101273.56;;;9.07;61.29
74615;BME280;63121;51.458;-0.110;2023-01-10T05:18:31;101278.69;;;8.99;61.94
74615;BME280;63121;51.458;-0.110;2023-01-10T05:21:05;101278.78;;;9.27;61.41
74615;BME280;63121;51.458;-0.110;2023-01-10T05:23:31;101281.28;;;9.07;62.25
74615;BME280;63121;51.458;-0.110;2023-01-10T05:25:56;101284.75;;;9.16;62.45
74615;BME280;63121;51.458;-0.110;2023-01-10T05:28:22;101285.56;;;9.08;61.95
74615;BME280;63121;51.458;-0.110;2023-01-10T05:30:47;101289.84;;;9.01;62.90
74615;BME280;63121;51.458;-0.110;2023-01-10T05:33:12;101285.66;;;9.25;62.20
74615;BME280;63121;51.458;-0.110;2023-01-10T05:35:38;101283.09;;;9.37;61.78
74615;BME280;63121;51.458;-0.110;2023-01-10T05:38:03;101276.22;;;9.24;62.50
74615;BME280;63121;51.458;-0.110;2023-01-10T05:40:28;101272.84;;;9.60;61.86
74615;BME280;63121;51.458;-0.110;2023-01-10T05:42:54;101279.69;;;9.43;61.55
74615;BME280;63121;51.458;-0.110;2023-01-10T05:45:20;101274.59;;;9.60;61.67
74615;BME280;63121;51.458;-0.110;2023-01-10T05:47:45;101268.50;;;9.42;62.68
74615;BME280;63121;51.458;-0.110;2023-01-10T05:50:10;101270.25;;;9.49;62.63
74615;BME280;63121;51.458;-0.110;2023-01-10T05:52:36;101267.72;;;9.68;62.13
74615;BME280;63121;51.458;-0.110;2023-01-10T05:55:01;101267.69;;;9.45;62.84
74615;BME280;63121;51.458;-0.110;2023-01-10T05:57:27;101270.31;;;9.94;61.35
74615;BME280;63121;51.458;-0.110;2023-01-10T05:59:52;101260.00;;;10.08;60.71
74615;BME280;63121;51.458;-0.110;2023-01-10T06:02:17;101258.28;;;10.08;61.48
74615;BME280;63121;51.458;-0.110;2023-01-10T06:04:42;101247.09;;;9.94;61.60
74615;BME280;63121;51.458;-0.110;2023-01-10T06:07:08;101241.09;;;9.93;61.68
74615;BME280;63121;51.458;-0.110;2023-01-10T06:09:33;101237.66;;;9.96;61.46
74615;BME280;63121;51.458;-0.110;2023-01-10T06:11:59;101227.31;;;10.24;60.85
74615;BME280;63121;51.458;-0.110;2023-01-10T06:14:24;101219.56;;;10.28;60.52
74615;BME280;63121;51.458;-0.110;2023-01-10T06:16:49;101213.56;;;10.29;60.93
74615;BME280;63121;51.458;-0.110;2023-01-10T06:19:15;101215.31;;;10.04;61.79
74615;BME280;63121;51.458;-0.110;2023-01-10T06:21:40;101201.53;;;10.10;62.39
74615;BME280;63121;51.458;-0.110;2023-01-10T06:24:06;101197.19;;;10.26;61.71
74615;BME280;63121;51.458;-0.110;2023-01-10T06:26:31;101204.97;;;10.29;62.25
74615;BME280;63121;51.458;-0.110;2023-01-10T06:28:57;101200.59;;;10.49;61.21
74615;BME280;63121;51.458;-0.110;2023-01-10T06:31:24;101193.75;;;10.28;62.55
74615;BME280;63121;51.458;-0.110;2023-01-10T06:33:50;101185.13;;;10.43;62.30
74615;BME280;63121;51.458;-0.110;2023-01-10T06:36:15;101192.84;;;10.55;62.38
74615;BME280;63121;51.458;-0.110;2023-01-10T06:38:41;101191.19;;;10.34;63.56
74615;BME280;63121;51.458;-0.110;2023-01-10T06:41:06;101188.59;;;10.28;63.23
74615;BME280;63121;51.458;-0.110;2023-01-10T06:43:41;101175.59;;;10.71;62.69
74615;BME280;63121;51.458;-0.110;2023-01-10T06:46:07;101180.00;;;10.26;64.01
74615;BME280;63121;51.458;-0.110;2023-01-10T06:48:37;101181.69;;;10.49;63.53
74615;BME280;63121;51.458;-0.110;2023-01-10T06:51:04;101184.28;;;10.44;64.54
74615;BME280;63121;51.458;-0.110;2023-01-10T06:53:30;101168.78;;;10.56;64.34
74615;BME280;63121;51.458;-0.110;2023-01-10T06:55:55;101166.16;;;10.58;64.99
74615;BME280;63121;51.458;-0.110;2023-01-10T06:58:22;101170.44;;;10.71;64.66
74615;BME280;63121;51.458;-0.110;2023-01-10T07:00:47;101159.34;;;10.43;66.47
74615;BME280;63121;51.458;-0.110;2023-01-10T07:03:13;101167.97;;;10.22;67.38
74615;BME280;63121;51.458;-0.110;2023-01-10T07:05:38;101173.09;;;10.50;66.77
74615;BME280;63121;51.458;-0.110;2023-01-10T07:08:04;101162.81;;;10.37;67.34
74615;BME280;63121;51.458;-0.110;2023-01-10T07:10:29;101158.47;;;10.49;67.48
74615;BME280;63121;51.458;-0.110;2023-01-10T07:12:55;101152.47;;;10.24;68.22
74615;BME280;63121;51.458;-0.110;2023-01-10T07:15:20;101147.22;;;10.65;66.89
74615;BME280;63121;51.458;-0.110;2023-01-10T07:17:46;101143.72;;;10.75;67.09
74615;BME280;63121;51.458;-0.110;2023-01-10T07:20:12;101143.69;;;10.78;67.16
74615;BME280;63121;51.458;-0.110;2023-01-10T07:22:37;101132.56;;;10.67;68.12
74615;BME280;63121;51.458;-0.110;2023-01-10T07:25:04;101136.84;;;10.74;67.82
74615;BME280;63121;51.458;-0.110;2023-01-10T07:27:30;101132.50;;;10.81;67.36
74615;BME280;63121;51.458;-0.110;2023-01-10T07:29:56;101124.81;;;10.64;68.03
74615;BME280;63121;51.458;-0.110;2023-01-10T07:32:21;101118.72;;;10.84;67.98
74615;BME280;63121;51.458;-0.110;2023-01-10T07:34:47;101122.78;;;11.18;66.71
74615;BME280;63121;51.458;-0.110;2023-01-10T07:37:12;101119.50;;;10.92;67.72
74615;BME280;63121;51.458;-0.110;2023-01-10T07:39:38;101117.81;;;10.89;68.44
74615;BME280;63121;51.458;-0.110;2023-01-10T07:42:03;101104.09;;;10.86;68.53
74615;BME280;63121;51.458;-0.110;2023-01-10T07:44:29;101103.22;;;10.84;68.45
74615;BME280;63121;51.458;-0.110;2023-01-10T07:46:54;101105.94;;;10.59;70.07
74615;BME280;63121;51.458;-0.110;2023-01-10T07:49:19;101104.31;;;10.40;71.25
74615;BME280;63121;51.458;-0.110;2023-01-10T07:51:45;101093.88;;;10.61;70.39
74615;BME280;63121;51.458;-0.110;2023-01-10T07:54:10;101092.97;;;10.70;70.42
74615;BME280;63121;51.458;-0.110;2023-01-10T07:56:37;101090.56;;;10.16;71.76
74615;BME280;63121;51.458;-0.110;2023-01-10T07:59:02;101075.00;;;10.47;71.66
74615;BME280;63121;51.458;-0.110;2023-01-10T08:01:27;101068.88;;;10.69;70.44
74615;BME280;63121;51.458;-0.110;2023-01-10T08:03:55;101068.00;;;10.69;71.25
74615;BME280;63121;51.458;-0.110;2023-01-10T08:06:21;101054.34;;;10.54;71.50
74615;BME280;63121;51.458;-0.110;2023-01-10T08:08:46;101051.72;;;10.56;71.83
74615;BME280;63121;51.458;-0.110;2023-01-10T08:11:11;101038.75;;;10.70;71.89
74615;BME280;63121;51.458;-0.110;2023-01-10T08:13:37;101039.69;;;10.55;72.61
74615;BME280;63121;51.458;-0.110;2023-01-10T08:16:06;101045.50;;;10.89;71.50
74615;BME280;63121;51.458;-0.110;2023-01-10T08:18:33;101027.28;;;11.08;70.99
74615;BME280;63121;51.458;-0.110;2023-01-10T08:20:58;101024.16;;;10.66;72.63
74615;BME280;63121;51.458;-0.110;2023-01-10T08:23:25;101019.81;;;10.69;72.49
74615;BME280;63121;51.458;-0.110;2023-01-10T08:25:51;101012.22;;;10.48;73.70
74615;BME280;63121;51.458;-0.110;2023-01-10T08:28:17;101017.47;;;10.22;73.68
74615;BME280;63121;51.458;-0.110;2023-01-10T08:30:42;101006.19;;;10.49;72.90
74615;BME280;63121;51.458;-0.110;2023-01-10T08:33:09;101006.03;;;10.69;72.39
74615;BME280;63121;51.458;-0.110;2023-01-10T08:35:39;101003.66;;;10.40;73.47
74615;BME280;63121;51.458;-0.110;2023-01-10T08:38:05;100993.03;;;10.81;71.83
74615;BME280;63121;51.458;-0.110;2023-01-10T08:40:31;100996.63;;;10.62;72.77
74615;BME280;63121;51.458;-0.110;2023-01-10T08:42:58;100987.97;;;10.70;72.86
74615;BME280;63121;51.458;-0.110;2023-01-10T08:45:23;100983.09;;;10.23;72.76
74615;BME280;63121;51.458;-0.110;2023-01-10T08:47:49;100968.38;;;10.42;73.14
74615;BME280;63121;51.458;-0.110;2023-01-10T08:50:14;100959.81;;;10.35;73.10
74615;BME280;63121;51.458;-0.110;2023-01-10T08:52:40;100960.28;;;10.88;71.53
74615;BME280;63121;51.458;-0.110;2023-01-10T08:55:05;100946.09;;;10.31;73.04
74615;BME280;63121;51.458;-0.110;2023-01-10T08:57:31;100945.13;;;10.46;72.19
74615;BME280;63121;51.458;-0.110;2023-01-10T08:59:56;100936.50;;;10.50;72.56
74615;BME280;63121;51.458;-0.110;2023-01-10T09:02:21;100941.47;;;10.72;72.05
74615;BME280;63121;51.458;-0.110;2023-01-10T09:04:47;100940.06;;;10.25;73.23
74615;BME280;63121;51.458;-0.110;2023-01-10T09:07:12;100943.50;;;10.30;73.38
74615;BME280;63121;51.458;-0.110;2023-01-10T09:09:37;100946.94;;;10.27;73.26
74615;BME280;63121;51.458;-0.110;2023-01-10T09:12:03;100945.13;;;10.45;73.45
74615;BME280;63121;51.458;-0.110;2023-01-10T09:14:48;100932.81;;;10.79;72.80
74615;BME280;63121;51.458;-0.110;2023-01-10T09:17:14;100932.91;;;10.70;72.85
74615;BME280;63121;51.458;-0.110;2023-01-10T09:19:39;100931.16;;;10.69;72.67
74615;BME280;63121;51.458;-0.110;2023-01-10T09:22:05;100928.00;;;10.28;73.88
74615;BME280;63121;51.458;-0.110;2023-01-10T09:24:30;100921.72;;;10.66;73.39
74615;BME280;63121;51.458;-0.110;2023-01-10T09:26:55;100926.59;;;11.00;72.10
74615;BME280;63121;51.458;-0.110;2023-01-10T09:29:21;100919.13;;;10.66;72.80
74615;BME280;63121;51.458;-0.110;2023-01-10T09:31:46;100907.81;;;10.86;72.51
74615;BME280;63121;51.458;-0.110;2023-01-10T09:34:11;100902.84;;;10.61;73.27
74615;BME280;63121;51.458;-0.110;2023-01-10T09:36:37;100903.06;;;10.30;74.19
74615;BME280;63121;51.458;-0.110;2023-01-10T09:39:02;100878.72;;;10.65;73.65
74615;BME280;63121;51.458;-0.110;2023-01-10T09:51:59;100880.47;;;10.60;73.41
74615;BME280;63121;51.458;-0.110;2023-01-10T09:54:31;100883.78;;;10.74;73.44
74615;BME280;63121;51.458;-0.110;2023-01-10T09:56:59;100880.41;;;10.69;73.99
74615;BME280;63121;51.458;-0.110;2023-01-10T09:59:34;100871.50;;;10.98;73.22
74615;BME280;63121;51.458;-0.110;2023-01-10T10:02:13;100876.66;;;10.98;72.96
74615;BME280;63121;51.458;-0.110;2023-01-10T10:04:41;100871.72;;;10.80;73.90
74615;BME280;63121;51.458;-0.110;2023-01-10T10:07:13;100862.38;;;10.63;74.29
74615;BME280;63121;51.458;-0.110;2023-01-10T10:09:39;100848.59;;;10.66;74.36
74615;BME280;63121;51.458;-0.110;2023-01-10T10:17:36;100836.41;;;10.78;73.95
74615;BME280;63121;51.458;-0.110;2023-01-10T10:21:19;100820.13;;;10.73;74.41
74615;BME280;63121;51.458;-0.110;2023-01-10T10:23:39;100826.69;;;11.02;74.00
74615;BME280;63121;51.458;-0.110;2023-01-10T10:26:13;100817.25;;;11.03;73.99
74615;BME280;63121;51.458;-0.110;2023-01-10T10:37:08;100779.56;;;10.83;74.93
74615;BME280;63121;51.458;-0.110;2023-01-10T10:39:38;100775.72;;;11.18;73.35
74615;BME280;63121;51.458;-0.110;2023-01-10T10:42:12;100764.81;;;10.94;74.41
74615;BME280;63121;51.458;-0.110;2023-01-10T10:44:58;100765.28;;;11.24;73.45
74615;BME280;63121;51.458;-0.110;2023-01-10T10:47:30;100748.19;;;11.15;73.27
74615;BME280;63121;51.458;-0.110;2023-01-10T10:52:41;100749.03;;;11.14;74.43
74615;BME280;63121;51.458;-0.110;2023-01-10T10:55:22;100734.03;;;11.43;73.06
74615;BME280;63121;51.458;-0.110;2023-01-10T10:57:51;100737.81;;;11.17;74.35
74615;BME280;63121;51.458;-0.110;2023-01-10T11:00:26;100726.16;;;11.50;73.33
74615;BME280;63121;51.458;-0.110;2023-01-10T11:03:06;100719.47;;;11.37;74.40
74615;BME280;63121;51.458;-0.110;2023-01-10T11:05:42;100713.97;;;11.58;74.04
74615;BME280;63121;51.458;-0.110;2023-01-10T11:08:11;100709.34;;;11.22;74.74
74615;BME280;63121;51.458;-0.110;2023-01-10T11:10:49;100686.56;;;11.47;74.15
74615;BME280;63121;51.458;-0.110;2023-01-10T11:15:56;100667.69;;;11.43;74.65
74615;BME280;63121;51.458;-0.110;2023-01-10T11:18:24;100674.72;;;11.32;75.70
74615;BME280;63121;51.458;-0.110;2023-01-10T11:21:05;100667.59;;;11.49;74.96
74615;BME280;63121;51.458;-0.110;2023-01-10T11:23:54;100646.84;;;12.05;73.26
74615;BME280;63121;51.458;-0.110;2023-01-10T11:26:26;100624.72;;;12.35;72.78
74615;BME280;63121;51.458;-0.110;2023-01-10T11:29:03;100647.13;;;11.90;73.50
74615;BME280;63121;51.458;-0.110;2023-01-10T11:31:30;100653.41;;;11.73;73.94
74615;BME280;63121;51.458;-0.110;2023-01-10T11:33:56;100620.88;;;12.10;73.74
74615;BME280;63121;51.458;-0.110;2023-01-10T11:36:22;100610.81;;;11.94;74.36
74615;BME280;63121;51.458;-0.110;2023-01-10T11:39:02;100603.47;;;11.70;75.11
74615;BME280;63121;51.458;-0.110;2023-01-10T11:41:28;100599.59;;;11.95;73.94
74615;BME280;63121;51.458;-0.110;2023-01-10T11:44:21;100603.88;;;11.96;74.88
74615;BME280;63121;51.458;-0.110;2023-01-10T11:46:48;100591.44;;;12.17;73.60
74615;BME280;63121;51.458;-0.110;2023-01-10T11:49:24;100593.91;;;12.22;74.28
74615;BME280;63121;51.458;-0.110;2023-01-10T11:51:52;100588.13;;;12.09;74.80
74615;BME280;63121;51.458;-0.110;2023-01-10T11:54:31;100579.81;;;12.36;73.67
74615;BME280;63121;51.458;-0.110;2023-01-10T11:57:00;100568.13;;;12.17;74.46
74615;BME280;63121;51.458;-0.110;2023-01-10T11:59:27;100565.25;;;12.31;74.02
74615;BME280;63121;51.458;-0.110;2023-01-10T12:02:00;100574.50;;;12.43;73.96
74615;BME280;63121;51.458;-0.110;2023-01-10T12:04:31;100562.59;;;12.35;74.23
74615;BME280;63121;51.458;-0.110;2023-01-10T12:07:03;100557.88;;;12.12;75.28
74615;BME280;63121;51.458;-0.110;2023-01-10T12:09:43;100531.97;;;12.92;72.86
74615;BME280;63121;51.458;-0.110;2023-01-10T12:12:24;100553.78;;;12.81;73.55
74615;BME280;63121;51.458;-0.110;2023-01-10T12:14:51;100537.41;;;12.81;74.05
74615;BME280;63121;51.458;-0.110;2023-01-10T12:17:28;100536.59;;;12.79;73.81
74615;BME280;63121;51.458;-0.110;2023-01-10T12:19:57;100517.09;;;13.00;73.57
74615;BME280;63121;51.458;-0.110;2023-01-10T12:22:38;100525.53;;;13.44;72.63
74615;BME280;63121;51.458;-0.110;2023-01-10T12:25:13;100522.06;;;13.45;72.39
74615;BME280;63121;51.458;-0.110;2023-01-10T12:27:40;100508.91;;;13.51;72.30
74615;BME280;63121;51.458;-0.110;2023-01-10T12:32:54;100496.84;;;13.81;72.09
74615;BME280;63121;51.458;-0.110;2023-01-10T12:38:37;100482.53;;;13.68;73.37
74615;BME280;63121;51.458;-0.110;2023-01-10T12:44:20;100474.59;;;14.04;72.50
74615;BME280;63121;51.458;-0.110;2023-01-10T12:46:50;100463.19;;;14.08;72.39
74615;BME280;63121;51.458;-0.110;2023-01-10T12:49:28;100464.25;;;14.02;73.33
74615;BME280;63121;51.458;-0.110;2023-01-10T12:51:58;100466.63;;;14.38;72.45
74615;BME280;63121;51.458;-0.110;2023-01-10T12:54:27;100459.50;;;14.45;72.26
74615;BME280;63121;51.458;-0.110;2023-01-10T12:56:54;100458.00;;;14.66;71.27
74615;BME280;63121;51.458;-0.110;2023-01-10T12:59:41;100451.56;;;14.78;71.37
74615;BME280;63121;51.458;-0.110;2023-01-10T13:02:21;100452.56;;;14.46;72.42
74615;BME280;63121;51.458;-0.110;2023-01-10T13:04:56;100443.50;;;14.86;71.53
74615;BME280;63121;51.458;-0.110;2023-01-10T13:07:26;100445.03;;;14.93;71.49
74615;BME280;63121;51.458;-0.110;2023-01-10T13:09:53;100441.03;;;14.82;71.84
74615;BME280;63121;51.458;-0.110;2023-01-10T13:12:23;100437.25;;;14.91;71.28
74615;BME280;63121;51.458;-0.110;2023-01-10T13:15:08;100437.88;;;14.73;72.37
74615;BME280;63121;51.458;-0.110;2023-01-10T13:17:46;100426.72;;;14.96;71.71
74615;BME280;63121;51.458;-0.110;2023-01-10T13:22:49;100421.34;;;15.25;70.54
74615;BME280;63121;51.458;-0.110;2023-01-10T13:25:32;100415.16;;;15.04;71.51
74615;BME280;63121;51.458;-0.110;2023-01-10T13:28:22;100412.16;;;15.15;71.34
74615;BME280;63121;51.458;-0.110;2023-01-10T13:30:55;100410.19;;;15.22;71.73
74615;BME280;63121;51.458;-0.110;2023-01-10T13:33:26;100410.69;;;15.33;70.53
74615;BME280;63121;51.458;-0.110;2023-01-10T13:35:56;100395.84;;;14.87;72.92
74615;BME280;63121;51.458;-0.110;2023-01-10T13:38:44;100393.09;;;15.16;71.60
74615;BME280;63121;51.458;-0.110;2023-01-10T13:41:11;100397.47;;;15.14;71.84
74615;BME280;63121;51.458;-0.110;2023-01-10T13:44:17;100385.75;;;15.28;71.54
74615;BME280;63121;51.458;-0.110;2023-01-10T13:46:50;100393.69;;;15.48;69.88
74615;BME280;63121;51.458;-0.110;2023-01-10T13:49:24;100390.47;;;15.16;72.06
74615;BME280;63121;51.458;-0.110;2023-01-10T13:55:25;100384.97;;;15.00;72.11
74615;BME280;63121;51.458;-0.110;2023-01-10T13:57:58;100374.31;;;15.32;70.78
74615;BME280;63121;51.458;-0.110;2023-01-10T14:03:55;100378.91;;;15.25;70.87
74615;BME280;63121;51.458;-0.110;2023-01-10T14:08:54;100384.63;;;15.35;70.77
74615;BME280;63121;51.458;-0.110;2023-01-10T14:11:22;100382.81;;;15.37;70.29
74615;BME280;63121;51.458;-0.110;2023-01-10T14:13:52;100369.69;;;15.63;69.62
74615;BME280;63121;51.458;-0.110;2023-01-10T14:16:32;100368.16;;;15.34;70.39
74615;BME280;63121;51.458;-0.110;2023-01-10T14:19:00;100367.88;;;15.42;70.18